createdAt,value
2023-05-09T00:01:48.611Z,64.70
2023-05-09T00:04:15.934Z,64.25
2023-05-09T00:06:43.486Z,63.99
2023-05-09T00:09:10.778Z,63.52
2023-05-09T00:11:39.659Z,62.79
2023-05-09T00:14:07.280Z,62.95
2023-05-09T00:16:34.871Z,62.90
2023-05-09T00:19:02.245Z,64.13
2023-05-09T00:21:29.891Z,64.38
2023-05-09T00:23:57.387Z,64.78
2023-05-09T00:26:24.884Z,64.66
2023-05-09T00:28:53.588Z,65.07
2023-05-09T00:31:21.093Z,65.55
2023-05-09T00:33:48.653Z,65.41
2023-05-09T00:36:16.187Z,65.17
2023-05-09T00:38:43.662Z,65.32
2023-05-09T00:41:10.979Z,65.20
2023-05-09T00:43:38.376Z,64.89
2023-05-09T00:46:07.256Z,65.88
2023-05-09T00:48:35.748Z,65.67
2023-05-09T00:51:03.190Z,64.70
2023-05-09T00:53:30.943Z,64.41
2023-05-09T00:56:00.187Z,65.05
2023-05-09T00:58:28.132Z,64.89
2023-05-09T01:00:55.409Z,65.33
2023-05-09T01:03:24.184Z,64.72
2023-05-09T01:05:58.445Z,64.49
2023-05-09T01:08:37.631Z,64.75
2023-05-09T01:11:10.828Z,65.00
2023-05-09T01:13:49.636Z,64.95
2023-05-09T01:16:23.270Z,64.60
2023-05-09T01:19:00.751Z,64.68
2023-05-09T01:21:31.163Z,65.36
2023-05-09T01:24:24.898Z,67.30
2023-05-09T01:27:15.781Z,67.29
2023-05-09T01:29:47.182Z,67.99
2023-05-09T01:32:18.157Z,66.90
2023-05-09T01:34:47.762Z,66.18
2023-05-09T01:37:16.127Z,66.40
2023-05-09T01:39:48.221Z,66.48
2023-05-09T01:42:18.796Z,66.79
2023-05-09T01:44:48.978Z,65.99
2023-05-09T01:47:19.759Z,65.60
2023-05-09T01:49:47.996Z,65.24
2023-05-09T01:52:18.590Z,65.55
2023-05-09T01:54:47.730Z,65.62
2023-05-09T01:57:15.340Z,65.26
2023-05-09T01:59:44.881Z,64.39
2023-05-09T02:02:14.775Z,65.13
2023-05-09T02:04:44.079Z,64.98
2023-05-09T02:07:12.723Z,64.66
2023-05-09T02:09:40.387Z,64.39
2023-05-09T02:12:07.921Z,64.32
2023-05-09T02:14:35.282Z,65.33
2023-05-09T02:17:02.715Z,64.75
2023-05-09T02:19:32.243Z,64.72
2023-05-09T02:21:59.599Z,63.94
2023-05-09T02:24:27.241Z,63.80
2023-05-09T02:26:55.390Z,64.15
2023-05-09T02:29:27.544Z,64.18
2023-05-09T02:31:55.949Z,64.02
2023-05-09T02:34:24.047Z,64.45
2023-05-09T02:36:52.799Z,64.35
2023-05-09T02:39:20.578Z,64.89
2023-05-09T02:41:48.724Z,64.72
2023-05-09T02:44:15.996Z,65.87
2023-05-09T02:46:43.484Z,66.83
2023-05-09T02:49:16.754Z,67.37
2023-05-09T02:51:51.854Z,66.60
2023-05-09T02:54:19.341Z,65.60
2023-05-09T02:56:46.639Z,66.09
2023-05-09T02:59:14.058Z,65.72
2023-05-09T03:01:41.505Z,66.01
2023-05-09T03:04:08.972Z,65.07
2023-05-09T03:06:36.393Z,65.32
2023-05-09T03:09:05.124Z,65.14
2023-05-09T03:11:32.494Z,64.37
2023-05-09T03:13:59.801Z,64.49
2023-05-09T03:16:27.244Z,63.75
2023-05-09T03:18:54.726Z,64.00
2023-05-09T03:21:22.080Z,64.23
2023-05-09T03:23:49.597Z,65.03
2023-05-09T03:26:18.497Z,63.97
2023-05-09T03:28:46.518Z,63.82
2023-05-09T03:31:14.140Z,62.96
2023-05-09T03:33:41.490Z,63.28
2023-05-09T03:36:09.382Z,63.32
2023-05-09T03:38:36.905Z,64.07
2023-05-09T03:41:04.342Z,65.22
2023-05-09T03:43:33.025Z,64.96
2023-05-09T03:46:00.320Z,64.89
2023-05-09T03:48:27.873Z,64.87
2023-05-09T03:50:55.331Z,64.35
2023-05-09T03:53:23.667Z,63.14
2023-05-09T03:55:51.258Z,62.77
2023-05-09T03:58:18.645Z,63.67
2023-05-09T04:00:47.788Z,63.54
2023-05-09T04:03:15.278Z,64.18
2023-05-09T04:05:42.725Z,64.95
2023-05-09T04:08:10.226Z,64.99
2023-05-09T04:10:37.493Z,64.86
2023-05-09T04:13:07.868Z,64.33
2023-05-09T04:15:35.227Z,63.84
2023-05-09T04:18:04.370Z,63.60
2023-05-09T04:20:31.716Z,63.16
2023-05-09T04:22:59.059Z,62.75
2023-05-09T04:25:26.392Z,62.69
2023-05-09T04:27:53.687Z,63.69
2023-05-09T04:30:21.100Z,63.63
2023-05-09T04:32:48.478Z,63.30
2023-05-09T04:35:19.848Z,63.50
2023-05-09T04:37:48.056Z,62.91
2023-05-09T04:40:15.771Z,62.60
2023-05-09T04:42:43.141Z,62.53
2023-05-09T04:45:11.551Z,62.67
2023-05-09T04:47:39.127Z,62.36
2023-05-09T04:50:26.502Z,62.98
2023-05-09T04:52:53.934Z,63.50
2023-05-09T04:55:21.430Z,63.93
2023-05-09T04:57:48.848Z,65.00
2023-05-09T05:00:16.551Z,64.29
2023-05-09T05:02:43.954Z,64.39
2023-05-09T05:05:12.433Z,64.24
2023-05-09T05:07:41.570Z,64.07
2023-05-09T05:10:09.984Z,65.31
2023-05-09T05:12:37.468Z,64.70
2023-05-09T05:15:05.879Z,65.63
2023-05-09T05:17:33.294Z,65.57
2023-05-09T05:20:00.639Z,64.37
2023-05-09T05:22:27.957Z,64.71
2023-05-09T05:24:56.719Z,65.07
2023-05-09T05:27:24.288Z,64.80
2023-05-09T05:29:51.692Z,64.59
2023-05-09T05:32:19.132Z,64.50
2023-05-09T05:34:46.613Z,64.65
2023-05-09T05:37:14.050Z,64.66
2023-05-09T05:39:41.572Z,64.90
2023-05-09T05:42:10.412Z,64.23
2023-05-09T05:44:38.206Z,63.61
2023-05-09T05:47:05.711Z,63.23
2023-05-09T05:49:33.040Z,63.24
2023-05-09T05:52:03.543Z,63.19
2023-05-09T05:54:30.963Z,63.90
2023-05-09T05:56:58.284Z,64.60
2023-05-09T05:59:27.047Z,63.82
2023-05-09T06:01:54.424Z,63.56
2023-05-09T06:04:21.972Z,63.57
2023-05-09T06:06:49.468Z,62.98
2023-05-09T06:09:16.766Z,63.42
2023-05-09T06:11:44.063Z,63.21
2023-05-09T06:14:11.541Z,63.19
2023-05-09T06:16:40.365Z,62.94
2023-05-09T06:19:07.698Z,61.70
2023-05-09T06:21:34.998Z,61.88
2023-05-09T06:24:09.925Z,61.78
2023-05-09T06:26:41.739Z,60.79
2023-05-09T06:29:09.013Z,61.22
2023-05-09T06:31:36.574Z,61.56
2023-05-09T06:34:05.320Z,62.75
2023-05-09T06:36:32.651Z,63.08
2023-05-09T06:39:01.055Z,62.77
2023-05-09T06:41:28.616Z,61.53
2023-05-09T06:43:55.939Z,61.08
2023-05-09T06:46:23.309Z,61.22
2023-05-09T06:48:50.711Z,60.92
2023-05-09T06:51:19.875Z,61.83
2023-05-09T06:53:47.379Z,61.87
2023-05-09T06:56:14.713Z,61.10
2023-05-09T06:58:42.092Z,60.36
2023-05-09T07:01:09.480Z,61.75
2023-05-09T07:03:36.946Z,62.25
2023-05-09T07:06:04.459Z,61.92
2023-05-09T07:08:33.699Z,61.12
2023-05-09T07:11:01.141Z,60.27
2023-05-09T07:13:28.468Z,60.43
2023-05-09T07:15:56.064Z,60.06
2023-05-09T07:18:23.395Z,61.26
2023-05-09T07:20:50.705Z,61.46
2023-05-09T07:23:18.079Z,60.80
2023-05-09T07:25:46.775Z,60.15
2023-05-09T07:28:14.083Z,59.79
2023-05-09T07:30:41.474Z,60.03
2023-05-09T07:33:08.836Z,59.63
2023-05-09T07:35:36.407Z,58.71
2023-05-09T07:38:03.749Z,58.55
2023-05-09T07:40:31.233Z,59.00
2023-05-09T07:42:59.926Z,59.14
2023-05-09T07:45:27.416Z,59.68
2023-05-09T07:47:54.896Z,59.34
2023-05-09T07:50:22.345Z,58.92
2023-05-09T07:52:49.931Z,59.01
2023-05-09T07:55:17.667Z,58.38
2023-05-09T07:57:45.278Z,57.10
2023-05-09T08:00:15.165Z,57.51
2023-05-09T08:02:42.595Z,57.44
2023-05-09T08:05:10.386Z,57.27
2023-05-09T08:07:37.752Z,57.04
2023-05-09T08:10:06.144Z,57.19
2023-05-09T08:12:33.445Z,56.81
2023-05-09T08:15:00.776Z,56.44
2023-05-09T08:17:29.521Z,55.96
2023-05-09T08:19:56.974Z,56.13
2023-05-09T08:22:24.293Z,57.24
2023-05-09T08:24:51.673Z,57.57
2023-05-09T08:27:19.019Z,59.35
2023-05-09T08:29:46.524Z,59.33
2023-05-09T08:32:13.842Z,60.46
2023-05-09T08:34:42.598Z,61.64
2023-05-09T08:37:09.989Z,60.97
2023-05-09T08:39:37.609Z,61.03
2023-05-09T08:42:05.039Z,62.02
2023-05-09T08:44:32.379Z,61.39
2023-05-09T08:47:01.663Z,61.56
2023-05-09T08:49:29.721Z,60.78
2023-05-09T08:51:59.627Z,60.84
2023-05-09T08:54:27.687Z,60.42
2023-05-09T08:56:55.125Z,60.47
2023-05-09T08:59:22.898Z,61.02
2023-05-09T09:01:50.862Z,60.83
2023-05-09T09:04:18.279Z,60.86
2023-05-09T09:06:46.813Z,61.30
2023-05-09T09:09:17.269Z,61.78
2023-05-09T09:11:45.294Z,62.89
2023-05-09T09:14:19.409Z,63.14
2023-05-09T09:16:48.921Z,64.43
2023-05-09T09:19:17.992Z,63.86
2023-05-09T09:21:46.408Z,64.21
2023-05-09T09:24:21.505Z,64.46
2023-05-09T09:26:50.723Z,64.28
2023-05-09T09:29:19.753Z,64.34
2023-05-09T09:31:48.161Z,64.28
2023-05-09T09:34:23.165Z,64.55
2023-05-09T09:36:50.994Z,64.83
2023-05-09T09:39:19.781Z,64.63
2023-05-09T09:41:47.389Z,64.81
2023-05-09T09:44:15.938Z,65.00
2023-05-09T09:46:44.520Z,66.78
2023-05-09T09:49:12.686Z,67.32
2023-05-09T09:51:40.192Z,67.41
2023-05-09T09:54:08.238Z,67.39
2023-05-09T09:56:41.129Z,66.53
2023-05-09T09:59:09.758Z,66.94
2023-05-09T10:01:54.281Z,67.86
2023-05-09T10:04:21.656Z,67.72
2023-05-09T10:06:53.122Z,65.69
2023-05-09T10:09:22.271Z,66.29
2023-05-09T10:11:52.716Z,66.23
2023-05-09T10:14:21.506Z,66.09
2023-05-09T10:16:49.836Z,65.13
2023-05-09T10:19:18.522Z,66.58
2023-05-09T10:21:50.751Z,66.36
2023-05-09T10:24:23.892Z,66.00
2023-05-09T10:26:56.647Z,65.96
2023-05-09T10:29:27.312Z,67.25
2023-05-09T10:31:59.077Z,67.22
2023-05-09T10:34:31.778Z,67.61
2023-05-09T10:37:00.526Z,68.59
2023-05-09T10:39:28.729Z,68.97
2023-05-09T10:41:58.810Z,68.91
2023-05-09T10:44:26.514Z,68.74
2023-05-09T10:46:54.508Z,69.21
2023-05-09T10:49:22.670Z,68.25
2023-05-09T10:51:50.293Z,67.62
2023-05-09T10:54:28.544Z,67.70
2023-05-09T10:56:59.047Z,66.88
2023-05-09T10:59:34.126Z,67.81
2023-05-09T11:02:02.283Z,68.28
2023-05-09T11:04:30.301Z,67.97
2023-05-09T11:06:58.506Z,67.25
2023-05-09T11:09:33.609Z,66.91
2023-05-09T11:12:09.510Z,67.17
2023-05-09T11:14:44.450Z,67.51
2023-05-09T11:17:13.830Z,67.42
2023-05-09T11:20:01.792Z,67.61
2023-05-09T11:22:29.949Z,67.45
2023-05-09T11:25:04.142Z,68.07
2023-05-09T11:27:39.019Z,68.67
2023-05-09T11:30:08.358Z,67.92
2023-05-09T11:32:42.625Z,68.60
2023-05-09T11:35:11.769Z,68.25
2023-05-09T11:37:47.248Z,68.69
2023-05-09T11:40:16.422Z,69.08
2023-05-09T11:42:46.898Z,70.06
2023-05-09T11:45:15.378Z,68.90
2023-05-09T11:47:43.259Z,68.72
2023-05-09T11:50:20.857Z,68.32
2023-05-09T11:52:49.340Z,68.55
2023-05-09T11:55:18.927Z,68.15
2023-05-09T11:57:50.443Z,68.97
2023-05-09T12:00:19.510Z,68.89
2023-05-09T12:02:47.428Z,69.69
2023-05-09T12:05:16.730Z,68.81
2023-05-09T12:07:44.990Z,68.96
2023-05-09T12:10:14.612Z,69.56
2023-05-09T12:12:44.089Z,69.57
2023-05-09T12:15:14.463Z,70.47
2023-05-09T12:17:43.485Z,70.26
2023-05-09T12:20:11.452Z,69.09
2023-05-09T12:22:38.836Z,68.58
2023-05-09T12:25:08.165Z,67.73
2023-05-09T12:27:36.895Z,67.77
2023-05-09T12:30:05.838Z,67.91
2023-05-09T12:32:35.387Z,67.44
2023-05-09T12:35:03.153Z,66.87
2023-05-09T12:37:31.561Z,65.73
2023-05-09T12:40:02.781Z,66.32
2023-05-09T12:42:30.444Z,66.74
2023-05-09T12:44:58.002Z,67.95
2023-05-09T12:47:27.047Z,68.73
2023-05-09T12:49:57.897Z,68.53
2023-05-09T12:52:25.928Z,69.54
2023-05-09T12:54:53.612Z,70.31
2023-05-09T12:57:22.107Z,70.69
2023-05-09T12:59:49.553Z,71.34
2023-05-09T13:02:17.194Z,71.77
2023-05-09T13:04:44.563Z,72.04
2023-05-09T13:07:13.427Z,72.36
2023-05-09T13:09:55.444Z,72.46
2023-05-09T13:12:23.750Z,72.05
2023-05-09T13:14:52.740Z,72.33
2023-05-09T13:17:20.283Z,71.83
2023-05-09T13:19:47.576Z,71.27
2023-05-09T13:22:16.683Z,70.42
2023-05-09T13:24:44.010Z,70.74
2023-05-09T13:27:11.337Z,69.99
2023-05-09T13:29:38.855Z,69.59
2023-05-09T13:32:06.177Z,70.30
2023-05-09T13:34:33.793Z,70.68
2023-05-09T13:37:01.057Z,70.31
2023-05-09T13:39:30.640Z,69.44
2023-05-09T13:41:58.023Z,69.26
2023-05-09T13:44:25.323Z,68.88
2023-05-09T13:46:52.769Z,70.08
2023-05-09T13:49:20.165Z,70.58
2023-05-09T13:51:47.484Z,71.14
2023-05-09T13:54:14.904Z,71.79
2023-05-09T13:56:43.705Z,71.34
2023-05-09T13:59:11.290Z,70.02
2023-05-09T14:01:38.843Z,69.43
2023-05-09T14:04:06.282Z,67.80
2023-05-09T14:06:33.628Z,67.15
2023-05-09T14:09:00.922Z,67.01
2023-05-09T14:11:28.275Z,66.17
2023-05-09T14:13:56.946Z,64.99
2023-05-09T14:16:24.461Z,64.36
2023-05-09T14:18:51.881Z,64.64
2023-05-09T14:21:19.314Z,64.21
2023-05-09T14:23:46.675Z,65.33
2023-05-09T14:26:14.091Z,66.73
2023-05-09T14:28:41.490Z,65.80
2023-05-09T14:31:10.382Z,66.92
2023-05-09T14:33:38.331Z,67.05
2023-05-09T14:36:06.170Z,67.29
2023-05-09T14:38:33.470Z,67.90
2023-05-09T14:41:01.000Z,67.75
2023-05-09T14:43:28.589Z,67.83
2023-05-09T14:45:55.931Z,66.96
2023-05-09T14:48:24.723Z,66.82
2023-05-09T14:50:52.044Z,67.21
2023-05-09T14:53:19.778Z,66.61
2023-05-09T14:55:47.066Z,66.53
2023-05-09T14:58:14.409Z,66.77
2023-05-09T15:00:42.083Z,67.73
2023-05-09T15:03:09.587Z,66.45
2023-05-09T15:05:38.868Z,66.53
2023-05-09T15:08:06.324Z,67.17
2023-05-09T15:10:33.800Z,66.37
2023-05-09T15:13:02.750Z,65.55
2023-05-09T15:15:31.686Z,64.84
2023-05-09T15:17:59.092Z,64.57
2023-05-09T15:20:26.578Z,65.16
2023-05-09T15:22:55.249Z,64.10
2023-05-09T15:25:22.655Z,63.33
2023-05-09T15:27:50.064Z,63.22
2023-05-09T15:30:17.513Z,62.56
2023-05-09T15:32:45.006Z,63.37
2023-05-09T15:35:12.457Z,63.82
2023-05-09T15:37:40.321Z,64.28
2023-05-09T15:40:09.820Z,64.24
2023-05-09T15:42:38.420Z,63.94
2023-05-09T15:45:06.796Z,65.00
2023-05-09T15:47:34.168Z,63.46
2023-05-09T15:50:01.517Z,62.08
2023-05-09T15:52:29.037Z,62.93
2023-05-09T15:54:56.453Z,62.46
2023-05-09T15:57:25.468Z,62.51
2023-05-09T15:59:52.841Z,63.00
2023-05-09T16:02:20.359Z,62.37
2023-05-09T16:04:47.687Z,61.98
2023-05-09T16:07:14.989Z,62.04
2023-05-09T16:09:42.292Z,59.74
2023-05-09T16:12:09.874Z,59.70
2023-05-09T16:14:38.635Z,59.01
2023-05-09T16:17:06.401Z,58.69
2023-05-09T16:19:35.914Z,58.63
2023-05-09T16:22:03.808Z,60.20
2023-05-09T16:24:31.166Z,60.57
2023-05-09T16:26:58.579Z,60.35
2023-05-09T16:29:25.885Z,59.34
2023-05-09T16:31:54.646Z,58.54
2023-05-09T16:34:22.329Z,59.19
2023-05-09T16:36:49.606Z,59.32
2023-05-09T16:39:16.908Z,60.21
2023-05-09T16:41:44.310Z,58.64
2023-05-09T16:44:11.585Z,59.08
2023-05-09T16:46:38.849Z,58.40
2023-05-09T16:49:07.530Z,60.09
2023-05-09T16:51:34.797Z,60.46
2023-05-09T16:54:02.183Z,60.23
2023-05-09T16:56:29.502Z,61.20
2023-05-09T16:58:57.231Z,62.17
2023-05-09T17:01:24.745Z,61.97
2023-05-09T17:03:52.291Z,61.73
2023-05-09T17:06:21.151Z,62.40
2023-05-09T17:08:48.604Z,62.97
2023-05-09T17:11:15.910Z,63.33
2023-05-09T17:13:43.189Z,62.74
2023-05-09T17:16:10.758Z,61.60
2023-05-09T17:18:38.558Z,62.65
2023-05-09T17:21:06.049Z,63.58
2023-05-09T17:23:34.755Z,63.78
2023-05-09T17:26:02.175Z,64.14
2023-05-09T17:28:29.486Z,64.19
2023-05-09T17:30:56.798Z,64.85
2023-05-09T17:33:24.173Z,66.17
2023-05-09T17:35:51.505Z,67.73
2023-05-09T17:38:19.070Z,68.29
2023-05-09T17:40:47.765Z,68.53
2023-05-09T17:43:15.015Z,68.52
2023-05-09T17:45:42.424Z,68.46
2023-05-09T17:48:09.787Z,69.34
2023-05-09T17:50:37.082Z,69.63
2023-05-09T17:53:04.516Z,70.34
2023-05-09T17:55:31.812Z,70.20
2023-05-09T17:58:00.516Z,70.82
2023-05-09T18:00:28.063Z,70.54
2023-05-09T18:02:57.168Z,71.35
2023-05-09T18:05:26.177Z,72.01
2023-05-09T18:07:54.158Z,72.91
2023-05-09T18:10:21.677Z,71.31
2023-05-09T18:12:49.102Z,72.89
2023-05-09T18:15:17.801Z,73.62
2023-05-09T18:17:45.249Z,73.76
2023-05-09T18:20:13.012Z,73.44
2023-05-09T18:22:40.414Z,72.67
2023-05-09T18:25:08.498Z,70.72
2023-05-09T18:27:35.784Z,70.34
2023-05-09T18:30:03.142Z,70.96
2023-05-09T18:32:31.856Z,69.59
2023-05-09T18:34:59.131Z,69.50
2023-05-09T18:37:26.397Z,69.31
2023-05-09T18:39:54.145Z,69.14
2023-05-09T18:42:21.509Z,68.63
2023-05-09T18:44:48.820Z,69.03
2023-05-09T18:47:16.207Z,68.63
2023-05-09T18:49:45.148Z,69.25
2023-05-09T18:52:12.449Z,68.62
2023-05-09T18:54:39.775Z,68.10
2023-05-09T18:57:07.112Z,69.02
2023-05-09T18:59:34.432Z,68.78
2023-05-09T19:02:01.792Z,68.89
2023-05-09T19:04:31.492Z,68.54
2023-05-09T19:07:00.229Z,67.95
2023-05-09T19:09:27.547Z,68.17
2023-05-09T19:11:54.946Z,68.58
2023-05-09T19:14:22.418Z,68.85
2023-05-09T19:16:49.865Z,69.43
2023-05-09T19:19:17.277Z,69.71
2023-05-09T19:21:44.756Z,69.31
2023-05-09T19:24:13.446Z,69.61
2023-05-09T19:26:40.976Z,68.87
2023-05-09T19:29:08.481Z,69.05
2023-05-09T19:31:36.835Z,68.15
2023-05-09T19:34:04.244Z,69.08
2023-05-09T19:36:31.989Z,68.81
2023-05-09T19:38:59.380Z,69.23
2023-05-09T19:41:28.327Z,69.23
2023-05-09T19:43:55.633Z,69.29
2023-05-09T19:46:23.155Z,68.99
2023-05-09T19:48:50.702Z,69.57
2023-05-09T19:51:17.966Z,69.39
2023-05-09T19:53:45.241Z,69.86
2023-05-09T19:56:12.740Z,69.61
2023-05-09T19:58:41.443Z,69.77
2023-05-09T20:01:09.722Z,69.99
2023-05-09T20:03:37.265Z,69.25
2023-05-09T20:06:04.994Z,69.38
2023-05-09T20:08:32.294Z,68.98
2023-05-09T20:10:59.645Z,69.04
2023-05-09T20:13:27.152Z,68.53
2023-05-09T20:15:56.169Z,68.82
2023-05-09T20:18:23.604Z,69.88
2023-05-09T20:20:51.008Z,69.79
2023-05-09T20:23:18.251Z,69.81
2023-05-09T20:25:45.492Z,69.52
2023-05-09T20:28:13.002Z,68.52
2023-05-09T20:30:40.293Z,69.95
2023-05-09T20:33:08.945Z,70.00
2023-05-09T20:35:36.420Z,70.15
2023-05-09T20:38:03.647Z,69.10
2023-05-09T20:40:31.033Z,69.52
2023-05-09T20:42:58.332Z,69.60
2023-05-09T20:45:25.685Z,68.81
2023-05-09T20:47:53.112Z,69.03
2023-05-09T20:50:21.849Z,69.46
2023-05-09T20:52:49.204Z,69.50
2023-05-09T20:55:16.656Z,68.58
2023-05-09T20:57:43.935Z,68.15
2023-05-09T21:00:12.417Z,68.07
2023-05-09T21:02:39.838Z,67.69
2023-05-09T21:05:07.897Z,68.18
2023-05-09T21:07:36.592Z,68.32
2023-05-09T21:10:04.388Z,68.22
2023-05-09T21:12:34.413Z,69.57
2023-05-09T21:15:01.668Z,69.34
2023-05-09T21:17:29.079Z,69.07
2023-05-09T21:19:56.378Z,69.48
2023-05-09T21:22:23.650Z,68.42
2023-05-09T21:24:52.893Z,68.88
2023-05-09T21:27:20.316Z,68.34
2023-05-09T21:29:47.694Z,68.10
2023-05-09T21:32:15.456Z,68.84
2023-05-09T21:34:42.920Z,67.67
2023-05-09T21:37:10.375Z,68.12
2023-05-09T21:39:37.655Z,68.52
2023-05-09T21:42:06.356Z,68.49
2023-05-09T21:44:33.586Z,68.66
2023-05-09T21:47:00.925Z,68.64
2023-05-09T21:49:28.703Z,68.65
2023-05-09T21:51:56.080Z,67.75
2023-05-09T21:54:23.540Z,67.73
2023-05-09T21:56:50.792Z,67.62
2023-05-09T21:59:19.422Z,68.24
2023-05-09T22:01:46.676Z,67.95
2023-05-09T22:04:14.175Z,68.48
2023-05-09T22:06:42.135Z,67.63
2023-05-09T22:09:09.896Z,68.67
2023-05-09T22:11:37.264Z,69.70
2023-05-09T22:14:04.500Z,70.46
2023-05-09T22:16:33.173Z,70.57
2023-05-09T22:19:00.459Z,69.98
2023-05-09T22:21:27.781Z,70.01
2023-05-09T22:23:55.212Z,69.83
2023-05-09T22:26:22.488Z,70.04
2023-05-09T22:28:50.161Z,69.81
2023-05-09T22:31:17.447Z,69.81
2023-05-09T22:33:46.253Z,69.52
2023-05-09T22:36:13.493Z,69.96
2023-05-09T22:38:40.785Z,69.65
2023-05-09T22:41:08.064Z,69.26
2023-05-09T22:43:39.194Z,69.48
2023-05-09T22:46:07.364Z,69.87
2023-05-09T22:48:34.737Z,69.58
2023-05-09T22:51:03.653Z,69.55
2023-05-09T22:53:31.446Z,68.58
2023-05-09T22:55:58.863Z,68.23
2023-05-09T22:58:26.299Z,68.38
2023-05-09T23:00:53.747Z,67.52
2023-05-09T23:03:21.272Z,67.79
2023-05-09T23:05:48.797Z,67.01
2023-05-09T23:08:17.501Z,67.23
2023-05-09T23:10:44.866Z,66.83
2023-05-09T23:13:12.450Z,67.14
2023-05-09T23:15:39.989Z,67.07
2023-05-09T23:18:07.482Z,66.30
2023-05-09T23:20:35.874Z,65.91
2023-05-09T23:23:03.415Z,65.99
2023-05-09T23:25:32.247Z,66.05
2023-05-09T23:27:59.537Z,66.43
2023-05-09T23:30:26.906Z,66.66
2023-05-09T23:32:54.437Z,66.39
2023-05-09T23:35:21.693Z,65.98
2023-05-09T23:37:49.063Z,66.08
2023-05-09T23:40:16.485Z,66.32
2023-05-09T23:42:45.532Z,66.75
2023-05-09T23:45:12.907Z,66.61
2023-05-09T23:47:40.441Z,66.59
2023-05-09T23:50:08.719Z,66.39
2023-05-09T23:52:36.098Z,66.24
2023-05-09T23:55:03.802Z,65.94
2023-05-09T23:57:31.161Z,65.66
2023-05-09T23:59:59.911Z,65.76
